Ely, Nevada
Current Conditions -  °F | °C
As of 9:53 AM on Friday 24 Oct 2014 (Local Time) from KELY Reporting Station
Clear Clear  
Wind Chill: 64°   Ceiling: Unl
Heat Index: 64°   Visibility: 10mi
Dew Point: 29°   Wind: 13mph
Humidity: 27%   Direction: 210°SSW
Pressure: 30.27"   Gusts: NA
Location:  39.25°N, 114.87°W
Report Text: KELY 241653Z AUTO 21011KT 10SM CLR 18/M02 A3027 RMK AO2 SLP172 T01781017
Loading
Personal Weather Stations






























Interactive Weather Map
Tropical Storm Tracking
New forecast layout! Learn more

10-Day Weather Forecast

Advertisements
Track Severe Weather on mobile